首页
METAR-TAF:

METAR-TAF

机场 :

富國國際機場

富國島, 越南

纬度: 10-10-18N, 经度: 103-59-28E, 海拔: 11米

当前天气观测

该预报发布于32分钟前的00:00 UTC
风速4节,风向,在北转东北东南之间变化
温度 28°C
湿度 74%
气压 1012 hPa
能见度10公里或以上
散云层高于1500英尺

METAR: VVPQ 190000Z 10004KT 020V130 9999 SCT015 28/23 Q1012 NOSIG

时间: 07:32 (00:32 UTC)

预报

该预报发布于1小时和32分钟前的23:00 UTC
预报有效从19日的 00点(UTC)到 19日的 24点(UTC)
风速11节,风向
能见度10公里或以上
散云层高于1500英尺

TAF: VVPQ 182300Z 1900/1924 10011KT 9999 SCT015

超过4000个机场的气象观测和天气预报(METAR&TAF报告)。

可查询的气象台以黄色和红色小点在地图上表示。

将鼠标移到小点上方,可查看气象台名称。

然后点击查看天气观测和预报。

如需切换地图:点击带黑十字的绿色按钮放大地图;点击带横线的绿色按钮缩小地图;或者点击绿色箭头查看邻近地区的地图。


METAR-TAF: